createdAt,value
2023-04-28T00:00:07.445Z,71.71
2023-04-28T00:02:35.745Z,72.80
2023-04-28T00:05:04.077Z,74.44
2023-04-28T00:07:32.265Z,73.96
2023-04-28T00:10:00.405Z,74.10
2023-04-28T00:12:28.602Z,72.03
2023-04-28T00:14:58.158Z,72.82
2023-04-28T00:17:26.426Z,71.91
2023-04-28T00:19:54.659Z,71.24
2023-04-28T00:22:22.872Z,71.31
2023-04-28T00:24:51.215Z,71.72
2023-04-28T00:27:20.687Z,70.98
2023-04-28T00:29:48.950Z,72.28
2023-04-28T00:32:18.492Z,70.91
2023-04-28T00:34:46.696Z,70.47
2023-04-28T00:37:14.826Z,71.00
2023-04-28T00:39:47.162Z,72.49
2023-04-28T00:42:15.715Z,72.60
2023-04-28T00:44:43.873Z,72.74
2023-04-28T00:47:12.977Z,74.49
2023-04-28T00:49:42.558Z,73.76
2023-04-28T00:52:11.507Z,72.77
2023-04-28T00:54:39.905Z,72.45
2023-04-28T00:57:08.713Z,74.46
2023-04-28T00:59:36.850Z,75.60
2023-04-28T01:02:05.348Z,75.12
2023-04-28T01:04:34.861Z,75.50
2023-04-28T01:07:04.888Z,77.01
2023-04-28T01:09:33.030Z,77.32
2023-04-28T01:12:01.955Z,76.61
2023-04-28T01:14:30.091Z,75.74
2023-04-28T01:16:58.514Z,75.68
2023-04-28T01:19:28.016Z,76.79
2023-04-28T01:21:56.149Z,75.94
2023-04-28T01:24:25.749Z,76.49
2023-04-28T01:26:53.940Z,76.28
2023-04-28T01:29:22.231Z,77.36
2023-04-28T01:31:50.428Z,77.80
2023-04-28T01:34:18.790Z,77.88
2023-04-28T01:36:47.002Z,77.61
2023-04-28T01:39:15.187Z,77.90
2023-04-28T01:41:44.744Z,77.00
2023-04-28T01:44:13.411Z,77.13
2023-04-28T01:46:41.639Z,77.20
2023-04-28T01:49:09.792Z,76.69
2023-04-28T01:51:37.870Z,76.73
2023-04-28T01:54:06.656Z,76.66
2023-04-28T01:56:34.823Z,76.57
2023-04-28T01:59:04.357Z,76.50
2023-04-28T02:01:32.518Z,77.43
2023-04-28T02:04:01.117Z,76.54
2023-04-28T02:06:29.378Z,76.57
2023-04-28T02:08:57.580Z,77.71
2023-04-28T02:11:25.764Z,78.37
2023-04-28T02:13:53.900Z,78.11
2023-04-28T02:16:23.419Z,77.43
2023-04-28T02:18:51.559Z,77.66
2023-04-28T02:21:19.635Z,77.80
2023-04-28T02:23:47.865Z,78.00
2023-04-28T02:26:17.177Z,78.21
2023-04-28T02:28:45.310Z,77.76
2023-04-28T02:31:14.147Z,78.39
2023-04-28T02:33:43.675Z,78.39
2023-04-28T02:36:12.281Z,77.63
2023-04-28T02:38:41.626Z,78.15
2023-04-28T02:41:10.327Z,77.94
2023-04-28T02:43:38.601Z,78.86
2023-04-28T02:46:06.958Z,78.79
2023-04-28T02:48:37.459Z,79.07
2023-04-28T02:51:07.183Z,79.93
2023-04-28T02:53:35.359Z,79.84
2023-04-28T02:56:04.698Z,78.80
2023-04-28T02:58:32.805Z,78.96
2023-04-28T03:01:01.328Z,80.63
2023-04-28T03:03:29.628Z,80.83
2023-04-28T03:05:58.139Z,79.99
2023-04-28T03:08:27.672Z,80.15
2023-04-28T03:10:56.065Z,80.28
2023-04-28T03:13:24.424Z,80.22
2023-04-28T03:15:52.675Z,81.66
2023-04-28T03:18:20.950Z,82.67
2023-04-28T03:20:49.029Z,82.57
2023-04-28T03:23:17.344Z,82.88
2023-04-28T03:25:46.868Z,82.88
2023-04-28T03:28:15.072Z,82.17
2023-04-28T03:30:43.300Z,82.73
2023-04-28T03:33:11.452Z,83.38
2023-04-28T03:35:39.665Z,83.64
2023-04-28T03:38:07.931Z,83.30
2023-04-28T03:40:37.075Z,82.67
2023-04-28T03:43:06.763Z,82.64
2023-04-28T03:45:35.010Z,83.17
2023-04-28T03:48:03.207Z,83.27
2023-04-28T03:50:31.363Z,83.29
2023-04-28T03:52:59.490Z,83.37
2023-04-28T03:55:28.344Z,83.74
2023-04-28T03:57:56.607Z,84.25
2023-04-28T04:00:26.174Z,84.86
2023-04-28T04:02:54.447Z,84.12
2023-04-28T04:05:22.798Z,84.02
2023-04-28T04:07:50.964Z,83.42
2023-04-28T04:10:19.142Z,85.39
2023-04-28T04:12:47.305Z,86.98
2023-04-28T04:15:15.540Z,86.01
2023-04-28T04:17:45.122Z,84.56
2023-04-28T04:20:14.300Z,83.92
2023-04-28T04:22:42.465Z,83.95
2023-04-28T04:25:10.908Z,84.59
2023-04-28T04:27:39.057Z,82.52
2023-04-28T04:30:08.769Z,82.34
2023-04-28T04:32:36.892Z,83.16
2023-04-28T04:35:07.210Z,85.09
2023-04-28T04:37:35.488Z,84.60
2023-04-28T04:40:03.821Z,82.52
2023-04-28T04:42:31.929Z,82.82
2023-04-28T04:45:00.194Z,83.45
2023-04-28T04:47:28.588Z,83.36
2023-04-28T04:49:56.703Z,83.22
2023-04-28T04:52:26.343Z,84.00
2023-04-28T04:54:56.487Z,83.05
2023-04-28T04:57:24.790Z,82.11
2023-04-28T04:59:53.039Z,81.46
2023-04-28T05:02:21.366Z,81.03
2023-04-28T05:04:49.911Z,81.50
2023-04-28T05:07:18.130Z,81.55
2023-04-28T05:09:47.765Z,81.18
2023-04-28T05:12:16.066Z,81.62
2023-04-28T05:14:44.271Z,81.80
2023-04-28T05:17:12.476Z,81.75
2023-04-28T05:19:40.710Z,80.74
2023-04-28T05:22:08.976Z,81.20
2023-04-28T05:24:37.199Z,81.45
2023-04-28T05:27:06.943Z,81.81
2023-04-28T05:29:35.240Z,82.26
2023-04-28T05:32:03.602Z,82.15
2023-04-28T05:34:31.967Z,82.88
2023-04-28T05:37:00.196Z,82.90
2023-04-28T05:39:28.499Z,83.35
2023-04-28T05:41:56.637Z,81.70
2023-04-28T05:44:26.456Z,80.24
2023-04-28T05:46:54.794Z,79.37
2023-04-28T05:49:22.996Z,78.19
2023-04-28T05:51:51.195Z,78.50
2023-04-28T05:54:19.525Z,77.72
2023-04-28T05:56:47.849Z,77.72
2023-04-28T05:59:16.389Z,78.92
2023-04-28T06:01:46.306Z,79.59
2023-04-28T06:04:14.694Z,79.08
2023-04-28T06:06:43.137Z,77.22
2023-04-28T06:09:11.279Z,79.14
2023-04-28T06:11:39.433Z,77.71
2023-04-28T06:14:08.033Z,76.76
2023-04-28T06:16:36.321Z,75.99
2023-04-28T06:19:06.219Z,75.67
2023-04-28T06:21:34.365Z,76.74
2023-04-28T06:24:03.035Z,76.05
2023-04-28T06:26:31.223Z,74.97
2023-04-28T06:28:59.493Z,74.30
2023-04-28T06:31:27.653Z,74.12
2023-04-28T06:33:55.811Z,74.08
2023-04-28T06:36:25.584Z,73.89
2023-04-28T06:38:53.771Z,73.88
2023-04-28T06:41:22.190Z,74.37
2023-04-28T06:43:51.039Z,73.71
2023-04-28T06:46:19.287Z,71.38
2023-04-28T06:48:47.557Z,72.23
2023-04-28T06:51:16.469Z,73.47
2023-04-28T06:53:46.075Z,72.62
2023-04-28T06:56:15.449Z,71.03
2023-04-28T06:58:43.600Z,71.68
2023-04-28T07:01:11.751Z,70.30
2023-04-28T07:03:40.003Z,68.47
2023-04-28T07:06:08.577Z,67.85
2023-04-28T07:08:37.300Z,68.48
2023-04-28T07:11:07.088Z,68.14
2023-04-28T07:13:35.300Z,68.58
2023-04-28T07:16:03.842Z,69.79
2023-04-28T07:18:32.041Z,69.85
2023-04-28T07:21:00.218Z,67.36
2023-04-28T07:23:28.480Z,66.93
2023-04-28T07:25:56.675Z,67.17
2023-04-28T07:28:26.295Z,64.97
2023-04-28T07:30:54.476Z,65.96
2023-04-28T07:33:22.752Z,66.19
2023-04-28T07:35:52.712Z,65.86
2023-04-28T07:38:21.658Z,64.32
2023-04-28T07:43:21.220Z,62.18
2023-04-28T07:45:50.834Z,61.56
2023-04-28T07:48:19.083Z,62.09
2023-04-28T07:50:47.312Z,63.10
2023-04-28T07:53:15.628Z,63.55
2023-04-28T07:55:44.902Z,66.12
2023-04-28T07:58:13.352Z,66.13
2023-04-28T08:00:41.533Z,64.46
2023-04-28T08:03:11.311Z,65.05
2023-04-28T08:05:41.421Z,65.00
2023-04-28T08:08:09.708Z,65.92
2023-04-28T08:10:38.198Z,64.63
2023-04-28T08:13:06.767Z,64.85
2023-04-28T08:15:35.061Z,65.76
2023-04-28T08:18:03.858Z,65.61
2023-04-28T08:20:33.432Z,65.49
2023-04-28T08:23:01.741Z,64.01
2023-04-28T08:25:29.937Z,63.89
2023-04-28T08:27:58.881Z,63.95
2023-04-28T08:30:27.167Z,63.90
2023-04-28T08:32:55.293Z,64.06
2023-04-28T08:35:23.725Z,63.06
2023-04-28T08:37:53.738Z,63.63
2023-04-28T08:40:22.056Z,63.69
2023-04-28T08:42:50.328Z,64.24
2023-04-28T08:45:18.737Z,65.41
2023-04-28T08:47:50.836Z,64.54
2023-04-28T08:50:23.757Z,64.65
2023-04-28T08:52:54.002Z,65.36
2023-04-28T08:55:22.944Z,65.21
2023-04-28T08:57:52.782Z,65.28
2023-04-28T09:00:21.075Z,65.66
2023-04-28T09:02:49.333Z,65.24
2023-04-28T09:05:17.739Z,66.78
2023-04-28T09:07:47.931Z,67.68
2023-04-28T09:10:22.149Z,67.29
2023-04-28T09:12:55.817Z,64.45
2023-04-28T09:15:28.431Z,63.55
2023-04-28T09:17:56.927Z,64.25
2023-04-28T09:20:26.452Z,64.39
2023-04-28T09:22:55.780Z,64.20
2023-04-28T09:25:27.015Z,65.09
2023-04-28T09:27:55.144Z,63.04
2023-04-28T09:30:40.438Z,62.23
2023-04-28T09:33:11.283Z,62.81
2023-04-28T09:35:43.522Z,61.83
2023-04-28T09:38:11.674Z,62.00
2023-04-28T09:40:58.860Z,60.24
2023-04-28T09:43:28.912Z,60.19
2023-04-28T09:45:57.932Z,61.00
2023-04-28T09:48:31.409Z,60.07
2023-04-28T09:50:59.898Z,59.20
2023-04-28T09:53:30.475Z,60.14
2023-04-28T09:56:01.633Z,60.10
2023-04-28T09:58:32.368Z,59.47
2023-04-28T10:01:01.890Z,59.85
2023-04-28T10:03:31.797Z,60.11
2023-04-28T10:06:00.658Z,61.81
2023-04-28T10:08:29.621Z,60.58
2023-04-28T10:10:59.632Z,60.10
2023-04-28T10:13:27.842Z,60.41
2023-04-28T10:15:58.511Z,59.06
2023-04-28T10:18:27.540Z,58.61
2023-04-28T10:21:00.139Z,58.66
2023-04-28T10:23:52.959Z,58.98
2023-04-28T10:26:25.353Z,59.05
2023-04-28T10:28:53.693Z,59.62
2023-04-28T10:31:23.204Z,58.54
2023-04-28T10:33:51.966Z,58.34
2023-04-28T10:36:50.963Z,59.15
2023-04-28T10:39:19.470Z,58.85
2023-04-28T10:41:49.523Z,57.96
2023-04-28T10:44:45.469Z,56.67
2023-04-28T10:47:13.646Z,56.66
2023-04-28T10:50:09.739Z,57.54
2023-04-28T10:52:50.158Z,57.49
2023-04-28T10:55:33.292Z,57.95
2023-04-28T10:58:41.954Z,57.46
2023-04-28T11:01:30.892Z,58.57
2023-04-28T11:04:05.050Z,57.17
2023-04-28T11:06:36.241Z,57.09
2023-04-28T11:09:25.702Z,57.81
2023-04-28T11:12:07.012Z,58.06
2023-04-28T11:14:37.589Z,56.90
2023-04-28T11:17:07.414Z,57.09
2023-04-28T11:19:37.832Z,57.09
2023-04-28T11:22:11.722Z,57.24
2023-04-28T11:24:39.960Z,58.45
2023-04-28T11:27:08.612Z,58.91
2023-04-28T11:29:39.266Z,56.82
2023-04-28T11:32:08.709Z,57.12
2023-04-28T11:34:37.712Z,56.45
2023-04-28T11:37:07.265Z,56.13
2023-04-28T11:39:37.363Z,55.23
2023-04-28T11:42:12.540Z,54.71
2023-04-28T11:44:42.496Z,54.69
2023-04-28T11:47:11.113Z,53.91
2023-04-28T11:49:46.941Z,54.24
2023-04-28T11:52:15.740Z,55.06
2023-04-28T11:54:44.020Z,56.72
2023-04-28T11:57:19.968Z,56.53
2023-04-28T11:59:50.072Z,55.11
2023-04-28T12:02:28.986Z,56.54
2023-04-28T12:04:57.827Z,56.59
2023-04-28T12:07:26.100Z,56.94
2023-04-28T12:10:12.372Z,57.06
2023-04-28T12:12:50.929Z,56.22
2023-04-28T12:15:22.882Z,56.32
2023-04-28T12:17:52.136Z,57.38
2023-04-28T12:20:36.785Z,56.00
2023-04-28T12:23:05.635Z,55.21
2023-04-28T12:25:36.100Z,56.13
2023-04-28T12:28:06.138Z,56.84
2023-04-28T12:30:39.018Z,57.68
2023-04-28T12:33:07.533Z,58.74
2023-04-28T12:35:35.813Z,57.68
2023-04-28T12:38:04.075Z,57.73
2023-04-28T12:40:32.241Z,58.00
2023-04-28T12:43:00.502Z,59.68
2023-04-28T12:45:30.394Z,59.62
2023-04-28T12:48:00.417Z,59.02
2023-04-28T12:50:32.476Z,59.68
2023-04-28T12:53:00.964Z,60.78
2023-04-28T12:55:30.800Z,61.90
2023-04-28T12:57:59.525Z,60.90
2023-04-28T13:00:27.839Z,58.91
2023-04-28T13:02:59.192Z,59.71
2023-04-28T13:05:29.015Z,58.79
2023-04-28T13:07:57.259Z,59.31
2023-04-28T13:10:26.776Z,58.46
2023-04-28T13:12:55.283Z,58.30
2023-04-28T13:15:23.585Z,57.99
2023-04-28T13:17:51.925Z,56.64
2023-04-28T13:20:20.269Z,57.23
2023-04-28T13:22:49.938Z,58.19
2023-04-28T13:25:18.284Z,57.39
2023-04-28T13:27:46.756Z,57.90
2023-04-28T13:30:15.860Z,57.03
2023-04-28T13:32:44.088Z,57.03
2023-04-28T13:35:12.285Z,57.31
2023-04-28T13:37:45.761Z,57.76
2023-04-28T13:40:15.695Z,58.39
2023-04-28T13:42:43.898Z,57.47
2023-04-28T13:45:13.941Z,57.13
2023-04-28T13:47:43.254Z,57.85
2023-04-28T13:50:11.576Z,58.06
2023-04-28T13:52:39.886Z,57.66
2023-04-28T13:55:08.453Z,58.22
2023-04-28T13:57:38.395Z,57.56
2023-04-28T14:00:08.021Z,57.19
2023-04-28T14:02:37.581Z,56.03
2023-04-28T14:05:06.545Z,56.51
2023-04-28T14:07:34.789Z,57.57
2023-04-28T14:10:03.148Z,58.33
2023-04-28T14:12:31.532Z,58.41
2023-04-28T14:15:01.221Z,56.93
2023-04-28T14:17:29.862Z,57.52
2023-04-28T14:19:58.140Z,59.63
2023-04-28T14:22:26.387Z,59.32
2023-04-28T14:24:54.679Z,60.38
2023-04-28T14:27:23.231Z,61.65
2023-04-28T14:29:51.451Z,62.50
2023-04-28T14:32:21.877Z,64.51
2023-04-28T14:34:51.224Z,65.47
2023-04-28T14:37:19.597Z,65.91
2023-04-28T14:39:47.904Z,67.35
2023-04-28T14:42:16.188Z,68.05
2023-04-28T14:44:45.336Z,68.38
2023-04-28T14:47:14.686Z,68.40
2023-04-28T14:49:44.336Z,69.37
2023-04-28T14:52:12.984Z,70.20
2023-04-28T14:54:41.470Z,70.60
2023-04-28T14:57:09.686Z,71.48
2023-04-28T14:59:38.241Z,72.18
2023-04-28T15:02:07.012Z,72.87
2023-04-28T15:04:35.358Z,72.42
2023-04-28T15:07:05.684Z,74.74
2023-04-28T15:09:34.049Z,74.90
2023-04-28T15:12:02.495Z,76.04
2023-04-28T15:14:30.909Z,76.31
2023-04-28T15:16:59.452Z,76.66
2023-04-28T15:19:27.794Z,77.53
2023-04-28T15:21:56.522Z,78.15
2023-04-28T15:24:26.209Z,79.45
2023-04-28T15:26:54.977Z,78.82
2023-04-28T15:29:24.250Z,78.84
2023-04-28T15:31:52.783Z,78.76
2023-04-28T15:34:21.216Z,78.73
2023-04-28T15:36:49.759Z,78.96
2023-04-28T15:39:18.066Z,79.90
2023-04-28T15:41:47.861Z,80.93
2023-04-28T15:44:16.044Z,80.41
2023-04-28T15:46:44.754Z,80.06
2023-04-28T15:49:13.432Z,80.47
2023-04-28T15:51:42.344Z,81.91
2023-04-28T15:54:10.650Z,82.88
2023-04-28T15:56:38.978Z,82.92
2023-04-28T15:59:10.467Z,83.05
2023-04-28T16:01:38.739Z,83.39
2023-04-28T16:04:07.250Z,84.02
2023-04-28T16:06:35.636Z,84.41
2023-04-28T16:09:04.706Z,84.33
2023-04-28T16:11:32.936Z,83.97
2023-04-28T16:14:01.191Z,82.96
2023-04-28T16:16:31.070Z,84.43
2023-04-28T16:18:59.411Z,85.37
2023-04-28T16:21:27.662Z,86.76
2023-04-28T16:23:55.970Z,87.06
2023-04-28T16:26:24.194Z,88.12
2023-04-28T16:28:52.546Z,88.65
2023-04-28T16:31:20.973Z,91.23
2023-04-28T16:33:50.639Z,92.45
2023-04-28T16:36:18.876Z,91.94
2023-04-28T16:38:47.216Z,91.51
2023-04-28T16:41:15.475Z,88.73
2023-04-28T16:43:43.773Z,89.42
2023-04-28T16:46:12.129Z,90.10
2023-04-28T16:48:40.446Z,92.08
2023-04-28T16:51:12.269Z,92.99
2023-04-28T16:53:40.443Z,94.63
2023-04-28T16:56:10.716Z,95.60
2023-04-28T16:58:39.494Z,95.93
2023-04-28T17:01:07.944Z,96.20
2023-04-28T17:03:41.387Z,96.77
2023-04-28T17:06:12.390Z,97.02
2023-04-28T17:08:41.131Z,97.33
2023-04-28T17:11:09.436Z,97.87
2023-04-28T17:13:38.065Z,96.72
2023-04-28T17:16:06.495Z,95.37
2023-04-28T17:18:34.785Z,95.78
2023-04-28T17:21:03.944Z,95.95
2023-04-28T17:23:33.703Z,97.26
2023-04-28T17:26:03.422Z,98.04
2023-04-28T17:28:32.905Z,97.73
2023-04-28T17:31:03.739Z,97.17
2023-04-28T17:33:32.343Z,96.84
2023-04-28T17:36:00.878Z,97.17
2023-04-28T17:38:29.175Z,98.03
2023-04-28T17:40:58.978Z,99.34
2023-04-28T17:43:27.282Z,100.00
2023-04-28T17:45:55.624Z,100.00
2023-04-28T17:48:24.255Z,100.00
2023-04-28T17:50:52.689Z,100.00
2023-04-28T17:53:20.959Z,100.00
2023-04-28T17:55:49.282Z,100.00
2023-04-28T17:58:19.722Z,100.00
2023-04-28T18:00:48.062Z,100.00
2023-04-28T18:03:16.411Z,100.00
2023-04-28T18:05:44.793Z,100.00
2023-04-28T18:08:14.036Z,100.00
2023-04-28T18:10:42.317Z,100.00
2023-04-28T18:13:10.807Z,100.00
2023-04-28T18:15:40.526Z,100.00
2023-04-28T18:18:08.820Z,100.00
2023-04-28T18:20:37.173Z,100.00
2023-04-28T18:23:05.642Z,100.00
2023-04-28T18:25:33.951Z,100.00
2023-04-28T18:28:02.483Z,100.00
2023-04-28T18:30:37.982Z,100.00
2023-04-28T18:33:08.955Z,100.00
2023-04-28T18:35:38.169Z,100.00
2023-04-28T18:38:06.753Z,100.00
2023-04-28T18:40:35.362Z,100.00
2023-04-28T18:43:03.665Z,100.00
2023-04-28T18:45:34.452Z,100.00
2023-04-28T18:48:03.869Z,100.00
2023-04-28T18:50:34.433Z,100.00
2023-04-28T18:53:02.813Z,100.00
2023-04-28T18:55:31.441Z,100.00
2023-04-28T18:58:02.185Z,100.00
2023-04-28T19:00:30.725Z,100.00
2023-04-28T19:02:59.134Z,100.00
2023-04-28T19:05:27.453Z,100.00
2023-04-28T19:07:57.106Z,100.00
2023-04-28T19:10:25.424Z,100.00
2023-04-28T19:12:53.938Z,100.00
2023-04-28T19:15:22.163Z,100.00
2023-04-28T19:17:50.500Z,100.00
2023-04-28T19:20:19.277Z,100.00
2023-04-28T19:22:47.714Z,100.00
2023-04-28T19:25:17.326Z,100.00
2023-04-28T19:27:46.189Z,100.00
2023-04-28T19:30:16.914Z,100.00
2023-04-28T19:32:45.201Z,100.00
2023-04-28T19:35:13.408Z,100.00
2023-04-28T19:37:41.614Z,100.00
2023-04-28T19:40:10.888Z,100.00
2023-04-28T19:42:41.297Z,100.00
2023-04-28T19:45:11.276Z,100.00
2023-04-28T19:47:39.654Z,100.00
2023-04-28T19:50:10.242Z,100.00
2023-04-28T19:52:38.703Z,100.00
2023-04-28T19:55:08.246Z,100.00
2023-04-28T19:57:36.664Z,100.00
2023-04-28T20:00:10.324Z,100.00
2023-04-28T20:02:38.727Z,100.00
2023-04-28T20:05:08.328Z,100.00
2023-04-28T20:07:39.883Z,100.00
2023-04-28T20:10:09.526Z,100.00
2023-04-28T20:12:37.818Z,100.00
2023-04-28T20:15:08.988Z,100.00
2023-04-28T20:17:37.272Z,100.00
2023-04-28T20:20:06.495Z,100.00
2023-04-28T20:22:35.541Z,100.00
2023-04-28T20:25:06.044Z,100.00
2023-04-28T20:27:34.920Z,100.00
2023-04-28T20:30:03.330Z,100.00
2023-04-28T20:32:33.107Z,100.00
2023-04-28T20:35:03.177Z,100.00
2023-04-28T20:37:32.135Z,100.00
2023-04-28T20:40:00.415Z,100.00
2023-04-28T20:42:29.438Z,100.00
2023-04-28T20:44:58.050Z,100.00
2023-04-28T20:47:26.197Z,100.00
2023-04-28T20:50:10.912Z,100.00
2023-04-28T20:52:39.180Z,100.00
2023-04-28T20:55:08.185Z,100.00
2023-04-28T20:57:36.600Z,100.00
2023-04-28T21:00:05.415Z,100.00
2023-04-28T21:02:33.695Z,100.00
2023-04-28T21:05:03.460Z,100.00
2023-04-28T21:07:31.663Z,100.00
2023-04-28T21:09:59.921Z,100.00
2023-04-28T21:12:28.351Z,100.00
2023-04-28T21:14:56.828Z,100.00
2023-04-28T21:17:25.065Z,100.00
2023-04-28T21:19:55.512Z,100.00
2023-04-28T21:22:25.347Z,100.00
2023-04-28T21:24:54.620Z,100.00
2023-04-28T21:27:24.188Z,100.00
2023-04-28T21:29:52.910Z,100.00
2023-04-28T21:32:21.161Z,100.00
2023-04-28T21:34:49.671Z,100.00
2023-04-28T21:37:18.971Z,100.00
2023-04-28T21:39:49.223Z,100.00
2023-04-28T21:42:17.552Z,100.00
2023-04-28T21:44:45.731Z,100.00
2023-04-28T21:47:15.884Z,100.00
2023-04-28T21:49:44.070Z,100.00
2023-04-28T21:52:12.509Z,100.00
2023-04-28T21:54:40.622Z,100.00
2023-04-28T21:57:10.204Z,100.00
2023-04-28T21:59:38.454Z,100.00
2023-04-28T22:02:07.897Z,100.00
2023-04-28T22:04:37.493Z,100.00
2023-04-28T22:07:06.541Z,100.00
2023-04-28T22:09:34.931Z,100.00
2023-04-28T22:12:04.123Z,100.00
2023-04-28T22:17:05.202Z,100.00
2023-04-28T22:19:33.384Z,100.00
2023-04-28T22:22:01.543Z,100.00
2023-04-28T22:24:29.855Z,100.00
2023-04-28T22:26:58.283Z,100.00
2023-04-28T22:29:26.924Z,100.00
2023-04-28T22:31:56.582Z,100.00
2023-04-28T22:34:24.906Z,100.00
2023-04-28T22:36:53.158Z,100.00
2023-04-28T22:39:21.263Z,100.00
2023-04-28T22:41:49.357Z,100.00
2023-04-28T22:44:17.519Z,100.00
2023-04-28T22:46:45.720Z,100.00
2023-04-28T22:49:15.298Z,100.00
2023-04-28T22:51:43.506Z,100.00
2023-04-28T22:54:11.682Z,100.00
2023-04-28T22:56:41.847Z,100.00
2023-04-28T22:59:10.990Z,100.00
2023-04-28T23:01:40.189Z,100.00
2023-04-28T23:04:10.035Z,100.00
2023-04-28T23:06:39.868Z,100.00
2023-04-28T23:09:08.000Z,100.00
2023-04-28T23:11:36.142Z,100.00
2023-04-28T23:14:04.508Z,100.00
2023-04-28T23:16:32.871Z,100.00
2023-04-28T23:19:01.186Z,100.00
2023-04-28T23:21:29.614Z,100.00
2023-04-28T23:23:59.314Z,100.00
2023-04-28T23:26:27.523Z,100.00
2023-04-28T23:28:55.983Z,100.00
2023-04-28T23:31:24.546Z,100.00
2023-04-28T23:33:52.712Z,100.00
2023-04-28T23:36:20.808Z,100.00
2023-04-28T23:38:49.465Z,100.00
2023-04-28T23:41:19.013Z,100.00
2023-04-28T23:43:47.079Z,100.00
2023-04-28T23:46:15.307Z,100.00
2023-04-28T23:48:44.011Z,100.00
2023-04-28T23:51:12.194Z,100.00
2023-04-28T23:53:40.421Z,100.00
2023-04-28T23:56:08.943Z,100.00
2023-04-28T23:58:38.589Z,100.00
